sensor_id;sensor_type;location;lat;lon;timestamp;P1;durP1;ratioP1;P2;durP2;ratioP2
40058;SDS011;25763;49.972;8.568;2023-01-16T00:01:16;10.02;;;9.32;;
40058;SDS011;25763;49.972;8.568;2023-01-16T00:03:42;10.82;;;10.20;;
40058;SDS011;25763;49.972;8.568;2023-01-16T00:06:07;10.65;;;10.05;;
40058;SDS011;25763;49.972;8.568;2023-01-16T00:08:33;10.45;;;9.80;;
40058;SDS011;25763;49.972;8.568;2023-01-16T00:10:58;11.23;;;10.52;;
40058;SDS011;25763;49.972;8.568;2023-01-16T00:13:24;11.32;;;10.63;;
40058;SDS011;25763;49.972;8.568;2023-01-16T00:15:50;10.70;;;9.88;;
40058;SDS011;25763;49.972;8.568;2023-01-16T00:18:16;9.60;;;8.90;;
40058;SDS011;25763;49.972;8.568;2023-01-16T00:20:42;9.82;;;9.23;;
40058;SDS011;25763;49.972;8.568;2023-01-16T00:23:07;10.38;;;9.77;;
40058;SDS011;25763;49.972;8.568;2023-01-16T00:25:33;10.88;;;10.20;;
40058;SDS011;25763;49.972;8.568;2023-01-16T00:28:03;11.50;;;10.60;;
40058;SDS011;25763;49.972;8.568;2023-01-16T00:30:28;10.25;;;9.65;;
40058;SDS011;25763;49.972;8.568;2023-01-16T00:32:54;10.25;;;9.65;;
40058;SDS011;25763;49.972;8.568;2023-01-16T00:35:19;9.43;;;8.82;;
40058;SDS011;25763;49.972;8.568;2023-01-16T00:37:44;9.45;;;8.85;;
40058;SDS011;25763;49.972;8.568;2023-01-16T00:40:10;9.52;;;8.93;;
40058;SDS011;25763;49.972;8.568;2023-01-16T00:42:35;16.65;;;10.40;;
40058;SDS011;25763;49.972;8.568;2023-01-16T00:45:01;10.55;;;9.75;;
40058;SDS011;25763;49.972;8.568;2023-01-16T00:47:26;10.20;;;9.60;;
40058;SDS011;25763;49.972;8.568;2023-01-16T00:49:51;10.68;;;9.85;;
40058;SDS011;25763;49.972;8.568;2023-01-16T00:52:17;9.63;;;9.02;;
40058;SDS011;25763;49.972;8.568;2023-01-16T00:54:42;10.88;;;10.23;;
40058;SDS011;25763;49.972;8.568;2023-01-16T00:57:07;10.68;;;10.07;;
40058;SDS011;25763;49.972;8.568;2023-01-16T00:59:33;9.75;;;9.15;;
40058;SDS011;25763;49.972;8.568;2023-01-16T01:01:58;11.02;;;10.32;;
40058;SDS011;25763;49.972;8.568;2023-01-16T01:04:23;10.15;;;9.55;;
40058;SDS011;25763;49.972;8.568;2023-01-16T01:06:49;10.55;;;9.95;;
40058;SDS011;25763;49.972;8.568;2023-01-16T01:09:15;10.75;;;10.15;;
40058;SDS011;25763;49.972;8.568;2023-01-16T01:11:40;10.80;;;10.10;;
40058;SDS011;25763;49.972;8.568;2023-01-16T01:14:06;11.38;;;10.68;;
40058;SDS011;25763;49.972;8.568;2023-01-16T01:16:31;12.02;;;11.23;;
40058;SDS011;25763;49.972;8.568;2023-01-16T01:18:56;10.88;;;10.23;;
40058;SDS011;25763;49.972;8.568;2023-01-16T01:21:22;11.05;;;10.35;;
40058;SDS011;25763;49.972;8.568;2023-01-16T01:23:47;11.93;;;11.18;;
40058;SDS011;25763;49.972;8.568;2023-01-16T01:26:14;11.18;;;10.48;;
40058;SDS011;25763;49.972;8.568;2023-01-16T01:28:41;11.32;;;10.63;;
40058;SDS011;25763;49.972;8.568;2023-01-16T01:31:08;11.88;;;11.18;;
40058;SDS011;25763;49.972;8.568;2023-01-16T01:33:34;11.75;;;11.05;;
40058;SDS011;25763;49.972;8.568;2023-01-16T01:36:00;11.48;;;10.77;;
40058;SDS011;25763;49.972;8.568;2023-01-16T01:38:26;11.15;;;10.43;;
40058;SDS011;25763;49.972;8.568;2023-01-16T01:40:51;12.32;;;11.55;;
40058;SDS011;25763;49.972;8.568;2023-01-16T01:43:17;11.02;;;10.32;;
40058;SDS011;25763;49.972;8.568;2023-01-16T01:45:51;11.00;;;10.32;;
40058;SDS011;25763;49.972;8.568;2023-01-16T01:48:27;10.90;;;10.25;;
40058;SDS011;25763;49.972;8.568;2023-01-16T01:50:59;10.98;;;10.30;;
40058;SDS011;25763;49.972;8.568;2023-01-16T01:53:36;12.68;;;11.88;;
40058;SDS011;25763;49.972;8.568;2023-01-16T01:56:11;11.80;;;11.10;;
40058;SDS011;25763;49.972;8.568;2023-01-16T01:58:38;10.77;;;10.07;;
40058;SDS011;25763;49.972;8.568;2023-01-16T02:01:04;10.25;;;9.65;;
40058;SDS011;25763;49.972;8.568;2023-01-16T02:03:37;10.48;;;9.85;;
40058;SDS011;25763;49.972;8.568;2023-01-16T02:06:16;11.30;;;10.60;;
40058;SDS011;25763;49.972;8.568;2023-01-16T02:08:45;11.25;;;10.55;;
40058;SDS011;25763;49.972;8.568;2023-01-16T02:11:16;10.88;;;10.18;;
40058;SDS011;25763;49.972;8.568;2023-01-16T02:13:58;11.20;;;10.50;;
40058;SDS011;25763;49.972;8.568;2023-01-16T02:16:26;11.02;;;10.32;;
40058;SDS011;25763;49.972;8.568;2023-01-16T02:22:14;12.30;;;11.50;;
40058;SDS011;25763;49.972;8.568;2023-01-16T02:25:02;11.13;;;10.43;;
40058;SDS011;25763;49.972;8.568;2023-01-16T02:27:32;11.50;;;10.80;;
40058;SDS011;25763;49.972;8.568;2023-01-16T02:30:25;12.07;;;11.38;;
40058;SDS011;25763;49.972;8.568;2023-01-16T02:33:03;10.45;;;9.85;;
40058;SDS011;25763;49.972;8.568;2023-01-16T02:38:20;11.18;;;10.48;;
40058;SDS011;25763;49.972;8.568;2023-01-16T02:46:46;11.77;;;11.07;;
40058;SDS011;25763;49.972;8.568;2023-01-16T02:49:21;10.85;;;10.23;;
40058;SDS011;25763;49.972;8.568;2023-01-16T02:51:57;11.80;;;11.07;;
40058;SDS011;25763;49.972;8.568;2023-01-16T02:54:31;11.27;;;10.57;;
40058;SDS011;25763;49.972;8.568;2023-01-16T02:57:07;11.10;;;10.40;;
40058;SDS011;25763;49.972;8.568;2023-01-16T02:59:35;10.80;;;10.15;;
40058;SDS011;25763;49.972;8.568;2023-01-16T03:02:01;11.43;;;10.73;;
40058;SDS011;25763;49.972;8.568;2023-01-16T03:15:57;11.55;;;10.85;;
40058;SDS011;25763;49.972;8.568;2023-01-16T03:18:33;11.57;;;10.88;;
40058;SDS011;25763;49.972;8.568;2023-01-16T03:29:31;12.30;;;11.38;;
40058;SDS011;25763;49.972;8.568;2023-01-16T03:37:06;10.52;;;9.93;;
40058;SDS011;25763;49.972;8.568;2023-01-16T03:39:38;12.20;;;11.30;;
40058;SDS011;25763;49.972;8.568;2023-01-16T03:42:09;12.07;;;11.35;;
40058;SDS011;25763;49.972;8.568;2023-01-16T03:44:41;11.80;;;11.10;;
40058;SDS011;25763;49.972;8.568;2023-01-16T03:47:13;11.85;;;11.05;;
40058;SDS011;25763;49.972;8.568;2023-01-16T03:49:45;11.85;;;11.15;;
40058;SDS011;25763;49.972;8.568;2023-01-16T03:52:14;11.32;;;10.63;;
40058;SDS011;25763;49.972;8.568;2023-01-16T03:54:51;11.98;;;11.27;;
40058;SDS011;25763;49.972;8.568;2023-01-16T03:57:26;11.30;;;10.55;;
40058;SDS011;25763;49.972;8.568;2023-01-16T03:59:56;11.80;;;11.10;;
40058;SDS011;25763;49.972;8.568;2023-01-16T04:02:30;11.82;;;10.98;;
40058;SDS011;25763;49.972;8.568;2023-01-16T04:08:14;10.18;;;9.57;;
40058;SDS011;25763;49.972;8.568;2023-01-16T04:10:45;10.37;;;9.77;;
40058;SDS011;25763;49.972;8.568;2023-01-16T04:13:19;12.00;;;11.30;;
40058;SDS011;25763;49.972;8.568;2023-01-16T04:15:51;11.45;;;10.75;;
40058;SDS011;25763;49.972;8.568;2023-01-16T04:18:21;11.30;;;10.60;;
40058;SDS011;25763;49.972;8.568;2023-01-16T04:20:50;11.27;;;10.57;;
40058;SDS011;25763;49.972;8.568;2023-01-16T04:23:15;10.52;;;9.90;;
40058;SDS011;25763;49.972;8.568;2023-01-16T04:25:41;10.45;;;9.77;;
40058;SDS011;25763;49.972;8.568;2023-01-16T04:28:07;10.20;;;9.60;;
40058;SDS011;25763;49.972;8.568;2023-01-16T04:30:33;10.48;;;9.88;;
40058;SDS011;25763;49.972;8.568;2023-01-16T04:33:01;10.38;;;9.57;;
40058;SDS011;25763;49.972;8.568;2023-01-16T04:35:28;9.35;;;8.75;;
40058;SDS011;25763;49.972;8.568;2023-01-16T04:37:53;9.50;;;8.90;;
40058;SDS011;25763;49.972;8.568;2023-01-16T04:40:18;9.65;;;9.05;;
40058;SDS011;25763;49.972;8.568;2023-01-16T04:42:44;8.80;;;8.25;;
40058;SDS011;25763;49.972;8.568;2023-01-16T04:45:09;9.38;;;8.77;;
40058;SDS011;25763;49.972;8.568;2023-01-16T04:47:35;9.07;;;8.48;;
40058;SDS011;25763;49.972;8.568;2023-01-16T04:50:00;12.98;;;8.52;;
40058;SDS011;25763;49.972;8.568;2023-01-16T04:52:26;9.10;;;8.50;;
40058;SDS011;25763;49.972;8.568;2023-01-16T04:54:51;9.50;;;8.90;;
40058;SDS011;25763;49.972;8.568;2023-01-16T04:57:16;9.13;;;8.52;;
40058;SDS011;25763;49.972;8.568;2023-01-16T04:59:42;10.05;;;9.45;;
40058;SDS011;25763;49.972;8.568;2023-01-16T05:02:07;10.13;;;9.43;;
40058;SDS011;25763;49.972;8.568;2023-01-16T05:04:33;9.45;;;8.85;;
40058;SDS011;25763;49.972;8.568;2023-01-16T05:06:58;9.45;;;8.85;;
40058;SDS011;25763;49.972;8.568;2023-01-16T05:09:23;10.25;;;9.55;;
40058;SDS011;25763;49.972;8.568;2023-01-16T05:11:49;10.52;;;9.52;;
40058;SDS011;25763;49.972;8.568;2023-01-16T05:14:14;10.48;;;9.77;;
40058;SDS011;25763;49.972;8.568;2023-01-16T05:16:40;9.48;;;8.88;;
40058;SDS011;25763;49.972;8.568;2023-01-16T05:19:07;9.80;;;9.20;;
40058;SDS011;25763;49.972;8.568;2023-01-16T05:21:33;10.70;;;10.05;;
40058;SDS011;25763;49.972;8.568;2023-01-16T05:23:58;10.00;;;9.40;;
40058;SDS011;25763;49.972;8.568;2023-01-16T05:26:23;10.10;;;9.50;;
40058;SDS011;25763;49.972;8.568;2023-01-16T05:28:49;9.52;;;8.93;;
40058;SDS011;25763;49.972;8.568;2023-01-16T05:31:14;9.57;;;8.98;;
40058;SDS011;25763;49.972;8.568;2023-01-16T05:33:40;10.20;;;9.60;;
40058;SDS011;25763;49.972;8.568;2023-01-16T05:36:05;9.88;;;9.27;;
40058;SDS011;25763;49.972;8.568;2023-01-16T05:38:31;10.73;;;9.95;;
40058;SDS011;25763;49.972;8.568;2023-01-16T05:40:57;9.70;;;9.07;;
40058;SDS011;25763;49.972;8.568;2023-01-16T05:43:22;10.18;;;9.57;;
40058;SDS011;25763;49.972;8.568;2023-01-16T05:45:48;9.85;;;9.25;;
40058;SDS011;25763;49.972;8.568;2023-01-16T05:48:13;10.23;;;9.63;;
40058;SDS011;25763;49.972;8.568;2023-01-16T05:50:39;10.18;;;9.57;;
40058;SDS011;25763;49.972;8.568;2023-01-16T05:53:04;10.43;;;9.80;;
40058;SDS011;25763;49.972;8.568;2023-01-16T05:55:30;10.43;;;9.82;;
40058;SDS011;25763;49.972;8.568;2023-01-16T05:57:55;10.45;;;9.82;;
40058;SDS011;25763;49.972;8.568;2023-01-16T06:00:21;10.38;;;9.77;;
40058;SDS011;25763;49.972;8.568;2023-01-16T06:02:46;10.55;;;9.95;;
40058;SDS011;25763;49.972;8.568;2023-01-16T06:05:12;10.30;;;9.70;;
40058;SDS011;25763;49.972;8.568;2023-01-16T06:07:38;10.30;;;9.65;;
40058;SDS011;25763;49.972;8.568;2023-01-16T06:10:04;11.82;;;11.02;;
40058;SDS011;25763;49.972;8.568;2023-01-16T06:12:29;11.90;;;10.85;;
40058;SDS011;25763;49.972;8.568;2023-01-16T06:14:57;10.70;;;10.05;;
40058;SDS011;25763;49.972;8.568;2023-01-16T06:17:22;11.25;;;10.55;;
40058;SDS011;25763;49.972;8.568;2023-01-16T06:19:48;11.15;;;10.45;;
40058;SDS011;25763;49.972;8.568;2023-01-16T06:22:13;10.73;;;10.13;;
40058;SDS011;25763;49.972;8.568;2023-01-16T06:24:39;11.88;;;11.18;;
40058;SDS011;25763;49.972;8.568;2023-01-16T06:27:04;11.57;;;10.88;;
40058;SDS011;25763;49.972;8.568;2023-01-16T06:29:30;10.88;;;10.20;;
40058;SDS011;25763;49.972;8.568;2023-01-16T06:31:55;11.48;;;10.77;;
40058;SDS011;25763;49.972;8.568;2023-01-16T06:34:20;11.15;;;10.45;;
40058;SDS011;25763;49.972;8.568;2023-01-16T06:36:46;11.30;;;10.60;;
40058;SDS011;25763;49.972;8.568;2023-01-16T06:39:13;11.13;;;10.45;;
40058;SDS011;25763;49.972;8.568;2023-01-16T06:41:39;12.35;;;11.65;;
40058;SDS011;25763;49.972;8.568;2023-01-16T06:44:04;11.40;;;10.70;;
40058;SDS011;25763;49.972;8.568;2023-01-16T06:46:30;11.05;;;10.35;;
40058;SDS011;25763;49.972;8.568;2023-01-16T06:48:55;11.48;;;10.77;;
40058;SDS011;25763;49.972;8.568;2023-01-16T06:51:21;11.23;;;10.52;;
40058;SDS011;25763;49.972;8.568;2023-01-16T06:53:46;12.25;;;11.55;;
40058;SDS011;25763;49.972;8.568;2023-01-16T06:56:11;11.18;;;10.48;;
40058;SDS011;25763;49.972;8.568;2023-01-16T06:58:36;11.65;;;10.95;;
40058;SDS011;25763;49.972;8.568;2023-01-16T07:01:02;11.55;;;10.85;;
40058;SDS011;25763;49.972;8.568;2023-01-16T07:03:27;11.73;;;11.02;;
40058;SDS011;25763;49.972;8.568;2023-01-16T07:05:53;11.43;;;10.73;;
40058;SDS011;25763;49.972;8.568;2023-01-16T07:08:18;11.93;;;11.23;;
40058;SDS011;25763;49.972;8.568;2023-01-16T07:10:43;12.60;;;11.90;;
40058;SDS011;25763;49.972;8.568;2023-01-16T07:13:09;11.88;;;11.18;;
40058;SDS011;25763;49.972;8.568;2023-01-16T07:15:35;12.07;;;11.38;;
40058;SDS011;25763;49.972;8.568;2023-01-16T07:18:20;11.73;;;11.02;;
40058;SDS011;25763;49.972;8.568;2023-01-16T07:21:05;12.05;;;11.30;;
40058;SDS011;25763;49.972;8.568;2023-01-16T07:23:57;12.00;;;11.30;;
40058;SDS011;25763;49.972;8.568;2023-01-16T07:26:26;12.10;;;11.40;;
40058;SDS011;25763;49.972;8.568;2023-01-16T07:28:52;11.82;;;11.13;;
40058;SDS011;25763;49.972;8.568;2023-01-16T07:31:19;11.52;;;10.82;;
40058;SDS011;25763;49.972;8.568;2023-01-16T07:33:44;10.70;;;10.07;;
40058;SDS011;25763;49.972;8.568;2023-01-16T07:36:10;11.82;;;11.13;;
40058;SDS011;25763;49.972;8.568;2023-01-16T07:38:35;12.20;;;11.40;;
40058;SDS011;25763;49.972;8.568;2023-01-16T07:41:01;11.57;;;10.88;;
40058;SDS011;25763;49.972;8.568;2023-01-16T07:43:26;12.07;;;11.38;;
40058;SDS011;25763;49.972;8.568;2023-01-16T07:45:51;12.23;;;11.52;;
40058;SDS011;25763;49.972;8.568;2023-01-16T07:48:23;10.90;;;10.23;;
40058;SDS011;25763;49.972;8.568;2023-01-16T07:50:58;10.95;;;10.25;;
40058;SDS011;25763;49.972;8.568;2023-01-16T07:53:26;11.25;;;10.55;;
40058;SDS011;25763;49.972;8.568;2023-01-16T07:55:57;11.05;;;10.25;;
40058;SDS011;25763;49.972;8.568;2023-01-16T07:58:23;12.13;;;11.32;;
40058;SDS011;25763;49.972;8.568;2023-01-16T08:00:51;13.75;;;11.30;;
40058;SDS011;25763;49.972;8.568;2023-01-16T08:03:17;11.93;;;11.23;;
40058;SDS011;25763;49.972;8.568;2023-01-16T08:05:43;11.50;;;10.80;;
40058;SDS011;25763;49.972;8.568;2023-01-16T08:08:09;11.60;;;10.90;;
40058;SDS011;25763;49.972;8.568;2023-01-16T08:10:35;12.07;;;11.32;;
40058;SDS011;25763;49.972;8.568;2023-01-16T08:13:00;11.73;;;11.00;;
40058;SDS011;25763;49.972;8.568;2023-01-16T08:15:26;11.70;;;11.00;;
40058;SDS011;25763;49.972;8.568;2023-01-16T08:17:51;11.02;;;10.32;;
40058;SDS011;25763;49.972;8.568;2023-01-16T08:20:16;11.98;;;11.18;;
40058;SDS011;25763;49.972;8.568;2023-01-16T08:22:45;11.70;;;10.95;;
40058;SDS011;25763;49.972;8.568;2023-01-16T08:25:12;11.32;;;10.63;;
40058;SDS011;25763;49.972;8.568;2023-01-16T08:27:39;10.55;;;9.95;;
40058;SDS011;25763;49.972;8.568;2023-01-16T08:30:05;10.80;;;10.15;;
40058;SDS011;25763;49.972;8.568;2023-01-16T08:32:31;11.50;;;10.80;;
40058;SDS011;25763;49.972;8.568;2023-01-16T08:34:56;11.25;;;10.50;;
40058;SDS011;25763;49.972;8.568;2023-01-16T08:37:21;12.48;;;11.77;;
40058;SDS011;25763;49.972;8.568;2023-01-16T08:39:47;11.05;;;10.35;;
40058;SDS011;25763;49.972;8.568;2023-01-16T08:42:12;12.05;;;11.30;;
40058;SDS011;25763;49.972;8.568;2023-01-16T08:45:04;11.30;;;10.60;;
40058;SDS011;25763;49.972;8.568;2023-01-16T08:47:48;11.02;;;10.32;;
40058;SDS011;25763;49.972;8.568;2023-01-16T08:50:32;12.02;;;11.32;;
40058;SDS011;25763;49.972;8.568;2023-01-16T08:53:15;12.10;;;11.40;;
40058;SDS011;25763;49.972;8.568;2023-01-16T08:55:41;11.32;;;10.63;;
40058;SDS011;25763;49.972;8.568;2023-01-16T08:58:06;12.07;;;11.38;;
40058;SDS011;25763;49.972;8.568;2023-01-16T09:00:31;11.77;;;11.07;;
40058;SDS011;25763;49.972;8.568;2023-01-16T09:02:58;10.95;;;10.27;;
40058;SDS011;25763;49.972;8.568;2023-01-16T09:05:26;11.05;;;10.35;;
40058;SDS011;25763;49.972;8.568;2023-01-16T09:07:52;11.27;;;10.57;;
40058;SDS011;25763;49.972;8.568;2023-01-16T09:10:17;12.15;;;11.35;;
40058;SDS011;25763;49.972;8.568;2023-01-16T09:12:42;11.93;;;11.23;;
40058;SDS011;25763;49.972;8.568;2023-01-16T09:15:26;12.70;;;12.00;;
40058;SDS011;25763;49.972;8.568;2023-01-16T09:17:52;12.90;;;12.15;;
40058;SDS011;25763;49.972;8.568;2023-01-16T09:20:17;11.75;;;11.05;;
40058;SDS011;25763;49.972;8.568;2023-01-16T09:22:43;11.48;;;10.77;;
40058;SDS011;25763;49.972;8.568;2023-01-16T09:25:08;11.55;;;10.85;;
40058;SDS011;25763;49.972;8.568;2023-01-16T09:27:34;10.75;;;10.15;;
40058;SDS011;25763;49.972;8.568;2023-01-16T09:30:00;11.85;;;11.15;;
40058;SDS011;25763;49.972;8.568;2023-01-16T09:32:25;11.23;;;10.52;;
40058;SDS011;25763;49.972;8.568;2023-01-16T09:34:51;11.43;;;10.73;;
40058;SDS011;25763;49.972;8.568;2023-01-16T09:37:17;11.25;;;10.55;;
40058;SDS011;25763;49.972;8.568;2023-01-16T09:39:43;12.02;;;11.32;;
40058;SDS011;25763;49.972;8.568;2023-01-16T09:45:19;11.60;;;10.90;;
40058;SDS011;25763;49.972;8.568;2023-01-16T09:47:49;11.75;;;11.05;;
40058;SDS011;25763;49.972;8.568;2023-01-16T09:50:20;12.88;;;12.13;;
40058;SDS011;25763;49.972;8.568;2023-01-16T09:52:53;10.52;;;9.93;;
40058;SDS011;25763;49.972;8.568;2023-01-16T09:55:41;11.10;;;10.40;;
40058;SDS011;25763;49.972;8.568;2023-01-16T09:58:28;11.90;;;11.20;;
40058;SDS011;25763;49.972;8.568;2023-01-16T10:01:08;11.23;;;10.52;;
40058;SDS011;25763;49.972;8.568;2023-01-16T10:03:37;11.15;;;10.35;;
40058;SDS011;25763;49.972;8.568;2023-01-16T10:06:13;11.07;;;10.38;;
40058;SDS011;25763;49.972;8.568;2023-01-16T10:11:40;11.25;;;10.55;;
40058;SDS011;25763;49.972;8.568;2023-01-16T10:17:03;10.35;;;9.68;;
40058;SDS011;25763;49.972;8.568;2023-01-16T10:25:37;10.48;;;9.88;;
40058;SDS011;25763;49.972;8.568;2023-01-16T10:28:24;14.75;;;13.85;;
40058;SDS011;25763;49.972;8.568;2023-01-16T10:31:09;9.50;;;8.90;;
40058;SDS011;25763;49.972;8.568;2023-01-16T10:33:43;9.68;;;9.07;;
40058;SDS011;25763;49.972;8.568;2023-01-16T10:36:15;11.45;;;10.63;;
40058;SDS011;25763;49.972;8.568;2023-01-16T10:38:50;9.77;;;9.18;;
40058;SDS011;25763;49.972;8.568;2023-01-16T10:41:25;9.82;;;9.23;;
40058;SDS011;25763;49.972;8.568;2023-01-16T10:47:09;10.25;;;9.65;;
40058;SDS011;25763;49.972;8.568;2023-01-16T10:49:55;10.15;;;9.55;;
40058;SDS011;25763;49.972;8.568;2023-01-16T10:52:21;11.13;;;10.43;;
40058;SDS011;25763;49.972;8.568;2023-01-16T10:54:47;9.43;;;8.82;;
40058;SDS011;25763;49.972;8.568;2023-01-16T10:57:17;10.05;;;9.45;;
40058;SDS011;25763;49.972;8.568;2023-01-16T10:59:44;9.88;;;9.25;;
40058;SDS011;25763;49.972;8.568;2023-01-16T11:02:15;9.57;;;8.98;;
40058;SDS011;25763;49.972;8.568;2023-01-16T11:05:01;11.27;;;10.57;;
40058;SDS011;25763;49.972;8.568;2023-01-16T11:07:55;10.45;;;9.85;;
40058;SDS011;25763;49.972;8.568;2023-01-16T11:10:26;10.55;;;9.85;;
40058;SDS011;25763;49.972;8.568;2023-01-16T11:12:51;10.93;;;10.25;;
40058;SDS011;25763;49.972;8.568;2023-01-16T11:15:35;10.93;;;10.20;;
40058;SDS011;25763;49.972;8.568;2023-01-16T11:18:34;11.93;;;11.23;;
40058;SDS011;25763;49.972;8.568;2023-01-16T11:21:02;10.45;;;9.85;;
40058;SDS011;25763;49.972;8.568;2023-01-16T11:23:52;11.77;;;11.07;;
40058;SDS011;25763;49.972;8.568;2023-01-16T11:26:25;10.32;;;9.73;;
40058;SDS011;25763;49.972;8.568;2023-01-16T11:28:52;11.15;;;10.45;;
40058;SDS011;25763;49.972;8.568;2023-01-16T11:33:54;10.32;;;9.73;;
40058;SDS011;25763;49.972;8.568;2023-01-16T11:36:26;11.15;;;10.45;;
40058;SDS011;25763;49.972;8.568;2023-01-16T11:38:54;10.75;;;10.13;;
40058;SDS011;25763;49.972;8.568;2023-01-16T11:41:20;10.57;;;9.98;;
40058;SDS011;25763;49.972;8.568;2023-01-16T11:44:09;11.52;;;10.82;;
40058;SDS011;25763;49.972;8.568;2023-01-16T11:47:01;10.82;;;10.18;;
40058;SDS011;25763;49.972;8.568;2023-01-16T11:49:32;10.50;;;9.90;;
40058;SDS011;25763;49.972;8.568;2023-01-16T11:52:00;10.85;;;10.10;;
40058;SDS011;25763;49.972;8.568;2023-01-16T11:54:28;11.10;;;10.40;;
40058;SDS011;25763;49.972;8.568;2023-01-16T11:57:09;10.93;;;10.27;;
40058;SDS011;25763;49.972;8.568;2023-01-16T12:03:02;10.55;;;9.95;;
40058;SDS011;25763;49.972;8.568;2023-01-16T12:11:08;8.68;;;8.15;;
40058;SDS011;25763;49.972;8.568;2023-01-16T12:14:06;8.93;;;8.32;;
40058;SDS011;25763;49.972;8.568;2023-01-16T12:33:40;9.80;;;9.20;;
40058;SDS011;25763;49.972;8.568;2023-01-16T12:36:13;9.73;;;9.10;;
40058;SDS011;25763;49.972;8.568;2023-01-16T12:38:47;10.30;;;9.70;;
40058;SDS011;25763;49.972;8.568;2023-01-16T12:41:27;9.60;;;9.00;;
40058;SDS011;25763;49.972;8.568;2023-01-16T12:44:25;10.65;;;10.05;;
40058;SDS011;25763;49.972;8.568;2023-01-16T12:47:07;10.68;;;10.05;;
40058;SDS011;25763;49.972;8.568;2023-01-16T12:49:59;11.23;;;10.52;;
40058;SDS011;25763;49.972;8.568;2023-01-16T12:52:44;11.80;;;11.10;;
40058;SDS011;25763;49.972;8.568;2023-01-16T12:55:31;10.80;;;10.15;;
40058;SDS011;25763;49.972;8.568;2023-01-16T12:58:19;11.95;;;11.25;;
40058;SDS011;25763;49.972;8.568;2023-01-16T13:01:11;11.95;;;11.25;;
40058;SDS011;25763;49.972;8.568;2023-01-16T13:03:53;10.93;;;10.25;;
40058;SDS011;25763;49.972;8.568;2023-01-16T13:06:34;11.87;;;11.17;;
40058;SDS011;25763;49.972;8.568;2023-01-16T13:09:09;11.43;;;10.73;;
40058;SDS011;25763;49.972;8.568;2023-01-16T13:11:51;10.68;;;10.02;;
40058;SDS011;25763;49.972;8.568;2023-01-16T13:14:50;10.07;;;9.48;;
40058;SDS011;25763;49.972;8.568;2023-01-16T13:17:22;11.18;;;10.48;;
40058;SDS011;25763;49.972;8.568;2023-01-16T13:19:52;10.52;;;9.93;;
40058;SDS011;25763;49.972;8.568;2023-01-16T13:22:29;10.98;;;10.27;;
40058;SDS011;25763;49.972;8.568;2023-01-16T13:25:14;9.80;;;9.20;;
40058;SDS011;25763;49.972;8.568;2023-01-16T13:27:55;10.70;;;10.07;;
40058;SDS011;25763;49.972;8.568;2023-01-16T13:30:24;9.55;;;8.95;;
40058;SDS011;25763;49.972;8.568;2023-01-16T13:32:54;10.18;;;9.57;;
40058;SDS011;25763;49.972;8.568;2023-01-16T13:35:26;9.65;;;9.05;;
40058;SDS011;25763;49.972;8.568;2023-01-16T13:38:23;10.38;;;9.77;;
40058;SDS011;25763;49.972;8.568;2023-01-16T13:41:03;10.82;;;10.13;;
40058;SDS011;25763;49.972;8.568;2023-01-16T13:43:41;10.15;;;9.55;;
40058;SDS011;25763;49.972;8.568;2023-01-16T13:46:31;10.90;;;10.25;;
40058;SDS011;25763;49.972;8.568;2023-01-16T13:48:58;10.48;;;9.82;;
40058;SDS011;25763;49.972;8.568;2023-01-16T13:51:26;11.32;;;10.63;;
40058;SDS011;25763;49.972;8.568;2023-01-16T13:54:01;10.43;;;9.82;;
40058;SDS011;25763;49.972;8.568;2023-01-16T13:56:31;9.60;;;9.00;;
40058;SDS011;25763;49.972;8.568;2023-01-16T14:01:55;9.88;;;9.27;;
40058;SDS011;25763;49.972;8.568;2023-01-16T14:06:51;10.10;;;9.50;;
40058;SDS011;25763;49.972;8.568;2023-01-16T14:12:34;10.98;;;10.23;;
40058;SDS011;25763;49.972;8.568;2023-01-16T14:15:20;10.35;;;9.75;;
40058;SDS011;25763;49.972;8.568;2023-01-16T14:18:17;11.38;;;10.68;;
40058;SDS011;25763;49.972;8.568;2023-01-16T14:23:17;10.40;;;9.80;;
40058;SDS011;25763;49.972;8.568;2023-01-16T14:29:04;10.30;;;9.70;;
40058;SDS011;25763;49.972;8.568;2023-01-16T14:31:42;11.65;;;10.95;;
40058;SDS011;25763;49.972;8.568;2023-01-16T14:34:16;11.35;;;10.65;;
40058;SDS011;25763;49.972;8.568;2023-01-16T14:36:44;10.13;;;9.52;;
40058;SDS011;25763;49.972;8.568;2023-01-16T14:40:18;11.10;;;10.40;;
40058;SDS011;25763;49.972;8.568;2023-01-16T14:45:20;10.85;;;10.15;;
40058;SDS011;25763;49.972;8.568;2023-01-16T14:51:00;11.32;;;10.63;;
40058;SDS011;25763;49.972;8.568;2023-01-16T14:57:00;10.35;;;9.75;;
40058;SDS011;25763;49.972;8.568;2023-01-16T14:59:45;11.20;;;10.50;;
40058;SDS011;25763;49.972;8.568;2023-01-16T15:05:05;11.82;;;11.13;;
40058;SDS011;25763;49.972;8.568;2023-01-16T15:10:10;11.35;;;10.65;;
40058;SDS011;25763;49.972;8.568;2023-01-16T15:15:42;13.18;;;10.70;;
40058;SDS011;25763;49.972;8.568;2023-01-16T15:18:14;11.85;;;11.15;;
40058;SDS011;25763;49.972;8.568;2023-01-16T15:20:59;10.63;;;10.02;;
40058;SDS011;25763;49.972;8.568;2023-01-16T15:23:44;10.20;;;9.60;;
40058;SDS011;25763;49.972;8.568;2023-01-16T15:28:50;9.18;;;8.57;;
40058;SDS011;25763;49.972;8.568;2023-01-16T15:31:29;8.35;;;7.85;;
40058;SDS011;25763;49.972;8.568;2023-01-16T15:34:04;8.98;;;8.38;;
40058;SDS011;25763;49.972;8.568;2023-01-16T15:36:40;9.18;;;8.57;;
40058;SDS011;25763;49.972;8.568;2023-01-16T15:41:56;9.10;;;8.50;;
40058;SDS011;25763;49.972;8.568;2023-01-16T15:44:42;10.20;;;9.60;;
40058;SDS011;25763;49.972;8.568;2023-01-16T15:50:20;9.82;;;9.23;;
40058;SDS011;25763;49.972;8.568;2023-01-16T15:52:49;9.90;;;9.30;;
40058;SDS011;25763;49.972;8.568;2023-01-16T15:57:55;9.27;;;8.68;;
40058;SDS011;25763;49.972;8.568;2023-01-16T16:00:32;9.60;;;9.00;;
40058;SDS011;25763;49.972;8.568;2023-01-16T16:03:10;8.98;;;8.38;;
40058;SDS011;25763;49.972;8.568;2023-01-16T16:05:36;9.15;;;8.55;;
40058;SDS011;25763;49.972;8.568;2023-01-16T16:08:03;9.05;;;8.45;;
40058;SDS011;25763;49.972;8.568;2023-01-16T16:10:29;9.80;;;9.20;;
40058;SDS011;25763;49.972;8.568;2023-01-16T16:13:17;9.88;;;9.27;;
40058;SDS011;25763;49.972;8.568;2023-01-16T16:15:57;9.45;;;8.85;;
40058;SDS011;25763;49.972;8.568;2023-01-16T16:21:41;10.18;;;9.57;;
40058;SDS011;25763;49.972;8.568;2023-01-16T16:24:28;8.95;;;8.35;;
40058;SDS011;25763;49.972;8.568;2023-01-16T16:27:05;9.27;;;8.68;;
40058;SDS011;25763;49.972;8.568;2023-01-16T16:29:31;9.35;;;8.75;;
40058;SDS011;25763;49.972;8.568;2023-01-16T16:32:00;9.70;;;9.10;;
40058;SDS011;25763;49.972;8.568;2023-01-16T16:34:27;9.32;;;8.73;;
40058;SDS011;25763;49.972;8.568;2023-01-16T16:36:55;10.30;;;9.70;;
40058;SDS011;25763;49.972;8.568;2023-01-16T16:41:50;9.60;;;9.00;;
40058;SDS011;25763;49.972;8.568;2023-01-16T16:44:36;10.25;;;9.65;;
40058;SDS011;25763;49.972;8.568;2023-01-16T16:47:11;9.63;;;9.02;;
40058;SDS011;25763;49.972;8.568;2023-01-16T16:49:39;9.43;;;8.82;;
40058;SDS011;25763;49.972;8.568;2023-01-16T16:52:47;9.88;;;9.27;;
40058;SDS011;25763;49.972;8.568;2023-01-16T16:55:07;9.27;;;8.68;;
40058;SDS011;25763;49.972;8.568;2023-01-16T16:58:14;9.48;;;8.88;;
40058;SDS011;25763;49.972;8.568;2023-01-16T17:00:42;9.68;;;9.07;;
40058;SDS011;25763;49.972;8.568;2023-01-16T17:03:11;9.18;;;8.57;;
40058;SDS011;25763;49.972;8.568;2023-01-16T17:05:40;9.80;;;9.20;;
40058;SDS011;25763;49.972;8.568;2023-01-16T17:08:05;10.43;;;9.82;;